createdAt,value
2022-07-25T00:03:44.324Z,98375.84
2022-07-25T00:09:06.541Z,98363.41
2022-07-25T00:14:28.295Z,98367.13
2022-07-25T00:19:50.011Z,98362.50
2022-07-25T00:25:11.886Z,98359.91
2022-07-25T00:30:33.647Z,98364.16
2022-07-25T00:35:55.349Z,98366.63
2022-07-25T00:41:17.070Z,98367.28
2022-07-25T00:46:39.325Z,98369.66
2022-07-25T00:52:01.542Z,98368.41
2022-07-25T00:57:23.610Z,98358.56
2022-07-25T01:02:45.916Z,98363.34
2022-07-25T01:08:09.038Z,98356.47
2022-07-25T01:13:34.281Z,98356.31
2022-07-25T01:18:55.994Z,98355.81
2022-07-25T01:24:17.760Z,98359.94
2022-07-25T01:29:39.511Z,98352.34
2022-07-25T01:35:01.641Z,98337.94
2022-07-25T01:40:23.553Z,98335.22
2022-07-25T01:45:45.451Z,98327.41
2022-07-25T01:51:08.150Z,98324.56
2022-07-25T01:56:32.834Z,98321.75
2022-07-25T02:01:55.151Z,98321.75
2022-07-25T02:07:16.978Z,98314.19
2022-07-25T02:12:38.783Z,98318.53
2022-07-25T02:18:00.778Z,98314.03
2022-07-25T02:23:22.572Z,98309.88
2022-07-25T02:28:44.465Z,98302.59
2022-07-25T02:34:06.438Z,98297.31
2022-07-25T02:39:28.504Z,98289.13
2022-07-25T02:44:50.246Z,98297.13
2022-07-25T02:50:14.713Z,98278.09
2022-07-25T02:55:36.798Z,98288.59
2022-07-25T03:00:58.661Z,98293.31
2022-07-25T03:06:20.455Z,98281.81
2022-07-25T03:11:42.307Z,98287.97
2022-07-25T03:17:04.217Z,98285.22
2022-07-25T03:22:26.069Z,98284.81
2022-07-25T03:27:47.804Z,98270.66
2022-07-25T03:33:10.140Z,98268.16
2022-07-25T03:38:31.972Z,98262.50
2022-07-25T03:43:53.782Z,98257.38
2022-07-25T03:49:15.979Z,98247.50
2022-07-25T03:54:37.721Z,98243.81
2022-07-25T03:59:59.541Z,98244.47
2022-07-25T04:05:21.355Z,98239.22
2022-07-25T04:10:43.112Z,98233.81
2022-07-25T04:16:05.418Z,98237.97
2022-07-25T04:21:27.182Z,98227.19
2022-07-25T04:26:49.012Z,98234.03
2022-07-25T04:32:11.258Z,98238.56
2022-07-25T04:37:33.213Z,98229.44
2022-07-25T04:42:55.068Z,98229.38
2022-07-25T04:48:17.008Z,98234.28
2022-07-25T04:53:38.986Z,98230.06
2022-07-25T04:59:06.707Z,98231.06
2022-07-25T05:04:28.747Z,98224.53
2022-07-25T05:09:50.519Z,98216.00
2022-07-25T05:15:12.644Z,98226.25
2022-07-25T05:20:34.356Z,98225.09
2022-07-25T05:25:56.120Z,98212.59
2022-07-25T05:31:19.047Z,98214.19
2022-07-25T05:36:45.472Z,98209.81
2022-07-25T05:42:08.871Z,98203.22
2022-07-25T05:47:30.750Z,98205.03
2022-07-25T05:52:52.522Z,98196.75
2022-07-25T05:58:14.470Z,98204.69
2022-07-25T06:03:36.248Z,98197.91
2022-07-25T06:08:58.464Z,98179.13
2022-07-25T06:14:21.564Z,98182.63
2022-07-25T06:19:44.675Z,98170.19
2022-07-25T06:25:07.039Z,98174.28
2022-07-25T06:30:28.908Z,98165.28
2022-07-25T06:35:50.772Z,98161.31
2022-07-25T06:41:16.019Z,98160.94
2022-07-25T06:46:37.868Z,98152.38
2022-07-25T06:51:59.782Z,98161.03
2022-07-25T06:57:21.586Z,98152.88
2022-07-25T07:03:01.566Z,98153.88
2022-07-25T07:08:23.492Z,98156.81
2022-07-25T07:13:45.433Z,98155.66
2022-07-25T07:19:07.642Z,98142.97
2022-07-25T07:24:29.694Z,98149.22
2022-07-25T07:29:51.471Z,98151.13
2022-07-25T07:35:16.407Z,98136.50
2022-07-25T07:40:38.403Z,98132.69
2022-07-25T07:46:01.076Z,98114.25
2022-07-25T07:51:23.197Z,98111.59
2022-07-25T07:56:45.737Z,98112.84
2022-07-25T08:02:07.614Z,98110.13
2022-07-25T08:07:29.473Z,98108.31
2022-07-25T08:12:51.626Z,98107.06
2022-07-25T08:18:17.693Z,98107.06
2022-07-25T08:23:39.997Z,98106.88
2022-07-25T08:29:18.223Z,98104.38
2022-07-25T08:34:40.785Z,98106.03
2022-07-25T08:40:03.527Z,98102.28
2022-07-25T08:45:27.929Z,98100.84
2022-07-25T08:50:51.250Z,98106.44
2022-07-25T08:56:18.877Z,98098.78
2022-07-25T09:01:42.665Z,98097.13
2022-07-25T09:07:08.053Z,98096.91
2022-07-25T09:12:30.125Z,98084.47
2022-07-25T09:17:52.500Z,98078.47
2022-07-25T09:23:38.520Z,98081.16
2022-07-25T09:29:01.094Z,98059.22
2022-07-25T09:34:50.145Z,98069.09
2022-07-25T09:40:15.373Z,98065.53
2022-07-25T09:45:37.114Z,98064.34
2022-07-25T09:50:59.953Z,98052.78
2022-07-25T09:56:21.755Z,98062.91
2022-07-25T10:01:55.122Z,98062.06
2022-07-25T10:07:20.479Z,98063.00
2022-07-25T10:12:42.492Z,98042.69
2022-07-25T10:18:06.766Z,98030.63
2022-07-25T10:23:28.600Z,98036.72
2022-07-25T10:28:51.631Z,98026.25
2022-07-25T10:34:16.571Z,98021.38
2022-07-25T10:39:40.647Z,98025.59
2022-07-25T10:45:05.401Z,98017.81
2022-07-25T10:50:53.664Z,98010.25
2022-07-25T10:56:23.201Z,98001.28
2022-07-25T11:01:50.784Z,98001.84
2022-07-25T11:07:15.515Z,98000.63
2022-07-25T11:12:37.405Z,97988.75
2022-07-25T11:17:59.171Z,97975.22
2022-07-25T11:23:23.820Z,97972.28
2022-07-25T11:28:47.992Z,97972.31
2022-07-25T11:34:09.927Z,97958.34
2022-07-25T11:39:34.719Z,97959.03
2022-07-25T11:44:56.475Z,97959.63
2022-07-25T11:50:28.664Z,97952.47
2022-07-25T11:55:50.414Z,97948.06
2022-07-25T12:01:14.781Z,97930.16
2022-07-25T12:06:36.513Z,97932.63
2022-07-25T12:12:03.927Z,97934.81
2022-07-25T12:17:25.984Z,97934.72
2022-07-25T12:22:49.559Z,97928.75
2022-07-25T12:28:12.152Z,97935.53
2022-07-25T12:33:33.957Z,97925.66
2022-07-25T12:38:55.787Z,97926.94
2022-07-25T12:44:17.544Z,97929.66
2022-07-25T12:49:39.361Z,97928.25
2022-07-25T12:55:01.249Z,97934.84
2022-07-25T13:00:23.945Z,97936.56
2022-07-25T13:05:45.860Z,97928.38
2022-07-25T13:11:07.670Z,97928.72
2022-07-25T13:16:29.555Z,97915.34
2022-07-25T13:21:51.459Z,97916.53
2022-07-25T13:27:13.262Z,97911.97
2022-07-25T13:32:35.164Z,97910.19
2022-07-25T13:37:56.914Z,97909.84
2022-07-25T13:43:21.472Z,97905.75
2022-07-25T13:48:43.403Z,97900.56
2022-07-25T13:54:05.341Z,97903.16
2022-07-25T13:59:27.094Z,97894.25
2022-07-25T14:04:48.851Z,97895.66
2022-07-25T14:10:10.770Z,97919.56
2022-07-25T14:15:32.742Z,97909.84
2022-07-25T14:20:55.229Z,97924.16
2022-07-25T14:26:17.235Z,97926.25
2022-07-25T14:31:40.215Z,97911.00
2022-07-25T14:37:02.663Z,97922.38
2022-07-25T14:42:24.458Z,97905.38
2022-07-25T14:47:46.377Z,97905.25
2022-07-25T14:53:08.215Z,97899.84
2022-07-25T14:58:30.152Z,97908.31
2022-07-25T15:03:52.834Z,97908.66
2022-07-25T15:09:15.057Z,97904.56
2022-07-25T15:14:36.846Z,97912.88
2022-07-25T15:19:58.834Z,97914.53
2022-07-25T15:25:59.898Z,97921.94
2022-07-25T15:31:02.708Z,97926.63
2022-07-25T15:36:29.126Z,97957.34
2022-07-25T15:41:51.508Z,97962.06
2022-07-25T15:47:13.434Z,97946.78
2022-07-25T15:52:35.498Z,97947.63
2022-07-25T15:57:57.836Z,97948.34
2022-07-25T16:03:20.969Z,97949.94
2022-07-25T16:08:42.793Z,97936.25
2022-07-25T16:14:05.391Z,97931.00
2022-07-25T16:19:27.210Z,97923.81
2022-07-25T16:24:49.223Z,97940.66
2022-07-25T16:30:11.538Z,97939.16
2022-07-25T16:35:33.384Z,97938.72
2022-07-25T16:40:55.382Z,97928.38
2022-07-25T16:46:17.256Z,97932.06
2022-07-25T16:51:39.344Z,97927.69
2022-07-25T16:57:01.181Z,97928.09
2022-07-25T17:02:28.902Z,97933.97
2022-07-25T17:07:58.687Z,97934.03
2022-07-25T17:13:21.729Z,97937.22
2022-07-25T17:18:43.639Z,97934.38
2022-07-25T17:24:06.307Z,97950.41
2022-07-25T17:29:28.150Z,97944.06
2022-07-25T17:34:49.959Z,97944.50
2022-07-25T17:40:12.141Z,97947.75
2022-07-25T17:45:34.380Z,97956.53
2022-07-25T17:50:56.168Z,97962.44
2022-07-25T17:56:17.982Z,97972.47
2022-07-25T18:01:40.020Z,97990.34
2022-07-25T18:07:02.016Z,98004.97
2022-07-25T18:12:27.503Z,97997.84
2022-07-25T18:17:52.796Z,98018.38
2022-07-25T18:23:14.662Z,98031.31
2022-07-25T18:28:36.485Z,98040.47
2022-07-25T18:33:58.384Z,98047.63
2022-07-25T18:39:20.240Z,98073.31
2022-07-25T18:44:42.053Z,98076.69
2022-07-25T18:50:05.527Z,98075.53
2022-07-25T18:55:27.415Z,98103.50
2022-07-25T19:00:49.233Z,98101.50
2022-07-25T19:06:11.451Z,98126.16
2022-07-25T19:11:37.640Z,98133.59
2022-07-25T19:17:04.585Z,98138.97
2022-07-25T19:22:26.889Z,98151.00
2022-07-25T19:27:48.724Z,98170.44
2022-07-25T19:33:10.565Z,98180.38
2022-07-25T19:38:32.988Z,98188.03
2022-07-25T19:43:54.963Z,98187.81
2022-07-25T19:49:17.227Z,98199.41
2022-07-25T19:54:39.254Z,98206.59
2022-07-25T20:00:01.357Z,98223.50
2022-07-25T20:05:23.242Z,98217.50
2022-07-25T20:10:45.048Z,98221.22
2022-07-25T20:16:07.034Z,98226.56
2022-07-25T20:21:29.469Z,98232.53
2022-07-25T20:26:51.316Z,98239.34
2022-07-25T20:32:13.147Z,98237.22
2022-07-25T20:37:35.050Z,98248.09
2022-07-25T20:42:57.916Z,98243.78
2022-07-25T20:48:19.744Z,98249.91
2022-07-25T20:53:41.951Z,98255.88
2022-07-25T20:59:04.155Z,98265.97
2022-07-25T21:04:26.147Z,98275.56
2022-07-25T21:09:47.920Z,98275.91
2022-07-25T21:15:10.162Z,98287.19
2022-07-25T21:20:31.937Z,98277.97
2022-07-25T21:25:53.669Z,98290.88
2022-07-25T21:31:17.607Z,98297.81
2022-07-25T21:36:39.794Z,98319.66
2022-07-25T21:42:01.814Z,98327.91
2022-07-25T21:47:24.630Z,98332.59
2022-07-25T21:52:46.542Z,98339.69
2022-07-25T21:58:08.304Z,98334.75
2022-07-25T22:03:30.131Z,98344.00
2022-07-25T22:08:51.935Z,98332.28
2022-07-25T22:14:14.271Z,98335.16
2022-07-25T22:19:36.069Z,98342.75
2022-07-25T22:24:57.917Z,98345.03
2022-07-25T22:30:19.802Z,98351.91
2022-07-25T22:35:41.689Z,98337.34
2022-07-25T22:41:03.517Z,98346.41
2022-07-25T22:46:25.556Z,98367.81
2022-07-25T22:51:47.416Z,98373.66
2022-07-25T22:57:09.182Z,98375.16
2022-07-25T23:02:31.019Z,98386.88
2022-07-25T23:07:52.818Z,98397.59
2022-07-25T23:13:14.585Z,98389.91
2022-07-25T23:18:36.379Z,98407.25
2022-07-25T23:23:59.907Z,98410.69
2022-07-25T23:29:21.665Z,98416.66
2022-07-25T23:34:44.162Z,98419.72
2022-07-25T23:40:06.654Z,98430.72
2022-07-25T23:45:28.700Z,98427.13
2022-07-25T23:50:50.478Z,98435.50
2022-07-25T23:56:13.476Z,98440.84
